sensor_id;sensor_type;location;lat;lon;timestamp;pressure;altitude;pressure_sealevel;temperature;humidity
13486;BME280;6815;59.336;17.998;2023-04-15T00:00:38;52230.88;;;-145.37;79.60
13486;BME280;6815;59.336;17.998;2023-04-15T00:03:03;52240.88;;;-145.37;79.29
13486;BME280;6815;59.336;17.998;2023-04-15T00:05:32;52270.81;;;-145.37;79.97
13486;BME280;6815;59.336;17.998;2023-04-15T00:07:58;52200.94;;;-145.37;80.28
13486;BME280;6815;59.336;17.998;2023-04-15T00:10:24;52214.91;;;-145.37;79.85
13486;BME280;6815;59.336;17.998;2023-04-15T00:12:50;52232.88;;;-145.37;80.67
13486;BME280;6815;59.336;17.998;2023-04-15T00:15:16;52200.94;;;-145.37;80.49
13486;BME280;6815;59.336;17.998;2023-04-15T00:17:42;52226.91;;;-145.37;80.16
13486;BME280;6815;59.336;17.998;2023-04-15T00:20:08;52248.84;;;-145.37;79.83
13486;BME280;6815;59.336;17.998;2023-04-15T00:22:33;52208.94;;;-145.37;80.16
13486;BME280;6815;59.336;17.998;2023-04-15T00:24:59;52232.88;;;-145.37;80.28
13486;BME280;6815;59.336;17.998;2023-04-15T00:27:24;52206.94;;;-145.37;79.92
13486;BME280;6815;59.336;17.998;2023-04-15T00:29:50;52202.94;;;-145.37;79.98
13486;BME280;6815;59.336;17.998;2023-04-15T00:32:15;52236.88;;;-145.37;80.32
13486;BME280;6815;59.336;17.998;2023-04-15T00:34:41;52232.88;;;-145.37;80.51
13486;BME280;6815;59.336;17.998;2023-04-15T00:37:08;52208.94;;;-145.37;79.96
13486;BME280;6815;59.336;17.998;2023-04-15T00:39:34;52175.00;;;-145.37;80.85
13486;BME280;6815;59.336;17.998;2023-04-15T00:41:59;52175.00;;;-145.37;80.73
13486;BME280;6815;59.336;17.998;2023-04-15T00:44:25;52208.94;;;-145.37;80.88
13486;BME280;6815;59.336;17.998;2023-04-15T00:46:51;52200.94;;;-145.37;81.16
13486;BME280;6815;59.336;17.998;2023-04-15T00:49:17;52236.88;;;-145.37;80.32
13486;BME280;6815;59.336;17.998;2023-04-15T00:51:43;52200.94;;;-145.37;81.22
13486;BME280;6815;59.336;17.998;2023-04-15T00:54:09;52256.84;;;-145.37;80.65
13486;BME280;6815;59.336;17.998;2023-04-15T00:56:36;52222.91;;;-145.37;81.56
13486;BME280;6815;59.336;17.998;2023-04-15T00:59:03;52204.94;;;-145.37;80.92
13486;BME280;6815;59.336;17.998;2023-04-15T01:01:29;52220.91;;;-145.37;80.54
13486;BME280;6815;59.336;17.998;2023-04-15T01:03:56;52208.94;;;-145.37;81.22
13486;BME280;6815;59.336;17.998;2023-04-15T01:06:24;52218.91;;;-145.37;80.94
13486;BME280;6815;59.336;17.998;2023-04-15T01:08:51;52214.91;;;-145.37;81.39
13486;BME280;6815;59.336;17.998;2023-04-15T01:11:17;52222.91;;;-145.37;81.13
13486;BME280;6815;59.336;17.998;2023-04-15T01:13:43;52210.91;;;-145.37;82.04
13486;BME280;6815;59.336;17.998;2023-04-15T01:16:10;52220.91;;;-145.37;82.77
13486;BME280;6815;59.336;17.998;2023-04-15T01:18:36;52248.84;;;-145.37;82.30
13486;BME280;6815;59.336;17.998;2023-04-15T01:21:03;52252.84;;;-145.37;81.52
13486;BME280;6815;59.336;17.998;2023-04-15T01:23:29;52178.97;;;-145.37;81.08
13486;BME280;6815;59.336;17.998;2023-04-15T01:25:55;52224.91;;;-145.37;81.42
13486;BME280;6815;59.336;17.998;2023-04-15T01:28:22;52232.88;;;-145.37;81.01
13486;BME280;6815;59.336;17.998;2023-04-15T01:30:48;52276.81;;;-145.37;81.04
13486;BME280;6815;59.336;17.998;2023-04-15T01:33:13;52282.78;;;-145.37;81.34
13486;BME280;6815;59.336;17.998;2023-04-15T01:35:39;52228.88;;;-145.37;81.29
13486;BME280;6815;59.336;17.998;2023-04-15T01:38:05;52230.88;;;-145.37;81.08
13486;BME280;6815;59.336;17.998;2023-04-15T01:40:32;52228.88;;;-145.37;81.19
13486;BME280;6815;59.336;17.998;2023-04-15T01:42:58;52228.88;;;-145.37;81.57
13486;BME280;6815;59.336;17.998;2023-04-15T01:45:25;52202.94;;;-145.37;81.25
13486;BME280;6815;59.336;17.998;2023-04-15T01:47:50;52246.84;;;-145.37;81.12
13486;BME280;6815;59.336;17.998;2023-04-15T01:50:16;52258.84;;;-145.37;81.33
13486;BME280;6815;59.336;17.998;2023-04-15T01:52:41;52252.84;;;-145.37;82.20
13486;BME280;6815;59.336;17.998;2023-04-15T01:55:08;52232.88;;;-145.37;81.42
13486;BME280;6815;59.336;17.998;2023-04-15T01:57:33;52242.88;;;-145.37;81.72
13486;BME280;6815;59.336;17.998;2023-04-15T01:59:59;52218.91;;;-145.37;81.14
13486;BME280;6815;59.336;17.998;2023-04-15T02:02:25;52220.91;;;-145.37;80.86
13486;BME280;6815;59.336;17.998;2023-04-15T02:04:50;52218.91;;;-145.37;81.18
13486;BME280;6815;59.336;17.998;2023-04-15T02:07:16;52224.91;;;-145.37;81.83
13486;BME280;6815;59.336;17.998;2023-04-15T02:09:41;52252.84;;;-145.37;82.11
13486;BME280;6815;59.336;17.998;2023-04-15T02:12:08;52216.91;;;-145.37;81.29
13486;BME280;6815;59.336;17.998;2023-04-15T02:14:33;52232.88;;;-145.37;80.83
13486;BME280;6815;59.336;17.998;2023-04-15T02:16:59;52196.94;;;-145.37;80.96
13486;BME280;6815;59.336;17.998;2023-04-15T02:19:31;52184.97;;;-145.37;81.41
13486;BME280;6815;59.336;17.998;2023-04-15T02:21:57;52188.97;;;-145.37;81.20
13486;BME280;6815;59.336;17.998;2023-04-15T02:24:22;52218.91;;;-145.37;81.07
13486;BME280;6815;59.336;17.998;2023-04-15T02:26:48;52264.81;;;-145.37;81.01
13486;BME280;6815;59.336;17.998;2023-04-15T02:29:13;52192.97;;;-145.37;81.01
13486;BME280;6815;59.336;17.998;2023-04-15T02:31:38;52202.94;;;-145.37;80.77
13486;BME280;6815;59.336;17.998;2023-04-15T02:34:06;52244.84;;;-145.37;81.40
13486;BME280;6815;59.336;17.998;2023-04-15T02:36:32;52228.88;;;-145.37;81.66
13486;BME280;6815;59.336;17.998;2023-04-15T02:38:58;52220.91;;;-145.37;80.71
13486;BME280;6815;59.336;17.998;2023-04-15T02:41:24;52228.88;;;-145.37;80.57
13486;BME280;6815;59.336;17.998;2023-04-15T02:43:51;52262.81;;;-145.37;80.80
13486;BME280;6815;59.336;17.998;2023-04-15T02:46:17;52232.88;;;-145.37;81.28
13486;BME280;6815;59.336;17.998;2023-04-15T02:48:42;52216.91;;;-145.37;80.85
13486;BME280;6815;59.336;17.998;2023-04-15T02:51:19;52246.84;;;-145.37;80.71
13486;BME280;6815;59.336;17.998;2023-04-15T02:53:48;52222.91;;;-145.37;80.48
13486;BME280;6815;59.336;17.998;2023-04-15T02:56:15;52244.84;;;-145.37;80.87
13486;BME280;6815;59.336;17.998;2023-04-15T02:58:42;52214.91;;;-145.37;80.80
13486;BME280;6815;59.336;17.998;2023-04-15T03:01:08;52290.78;;;-145.37;81.37
13486;BME280;6815;59.336;17.998;2023-04-15T03:03:34;52238.88;;;-145.37;80.94
13486;BME280;6815;59.336;17.998;2023-04-15T03:05:59;52192.97;;;-145.37;81.14
13486;BME280;6815;59.336;17.998;2023-04-15T03:08:25;52224.91;;;-145.37;81.85
13486;BME280;6815;59.336;17.998;2023-04-15T03:10:50;52222.91;;;-145.37;80.91
13486;BME280;6815;59.336;17.998;2023-04-15T03:13:17;52234.88;;;-145.37;80.77
13486;BME280;6815;59.336;17.998;2023-04-15T03:15:42;52228.88;;;-145.37;80.21
13486;BME280;6815;59.336;17.998;2023-04-15T03:18:08;52244.84;;;-145.37;80.79
13486;BME280;6815;59.336;17.998;2023-04-15T03:20:33;52192.97;;;-145.37;80.33
13486;BME280;6815;59.336;17.998;2023-04-15T03:23:00;52230.88;;;-145.37;80.65
13486;BME280;6815;59.336;17.998;2023-04-15T03:25:25;52240.88;;;-145.37;80.40
13486;BME280;6815;59.336;17.998;2023-04-15T03:27:51;52188.97;;;-145.37;80.05
13486;BME280;6815;59.336;17.998;2023-04-15T03:30:16;52216.91;;;-145.37;79.87
13486;BME280;6815;59.336;17.998;2023-04-15T03:32:42;52230.88;;;-145.37;80.10
13486;BME280;6815;59.336;17.998;2023-04-15T03:35:07;52222.91;;;-145.37;80.04
13486;BME280;6815;59.336;17.998;2023-04-15T03:37:33;52200.94;;;-145.37;80.73
13486;BME280;6815;59.336;17.998;2023-04-15T03:39:59;52246.84;;;-145.37;81.18
13486;BME280;6815;59.336;17.998;2023-04-15T03:42:24;52272.81;;;-145.37;81.09
13486;BME280;6815;59.336;17.998;2023-04-15T03:44:50;52202.94;;;-145.37;80.66
13486;BME280;6815;59.336;17.998;2023-04-15T03:47:15;52216.91;;;-145.37;81.00
13486;BME280;6815;59.336;17.998;2023-04-15T03:49:41;52248.84;;;-145.37;80.45
13486;BME280;6815;59.336;17.998;2023-04-15T03:52:06;52262.81;;;-145.37;80.42
13486;BME280;6815;59.336;17.998;2023-04-15T03:54:32;52268.81;;;-145.37;80.87
13486;BME280;6815;59.336;17.998;2023-04-15T03:56:57;52242.88;;;-145.37;80.70
13486;BME280;6815;59.336;17.998;2023-04-15T03:59:23;52252.84;;;-145.37;80.94
13486;BME280;6815;59.336;17.998;2023-04-15T04:01:48;52224.91;;;-145.37;80.79
13486;BME280;6815;59.336;17.998;2023-04-15T04:04:13;52210.91;;;-145.37;80.91
13486;BME280;6815;59.336;17.998;2023-04-15T04:06:39;52218.91;;;-145.37;80.10
13486;BME280;6815;59.336;17.998;2023-04-15T04:09:05;52248.84;;;-145.37;79.90
13486;BME280;6815;59.336;17.998;2023-04-15T04:11:30;52228.88;;;-145.37;80.51
13486;BME280;6815;59.336;17.998;2023-04-15T04:13:56;52218.91;;;-145.37;80.88
13486;BME280;6815;59.336;17.998;2023-04-15T04:16:21;52188.97;;;-145.37;80.65
13486;BME280;6815;59.336;17.998;2023-04-15T04:18:46;52234.88;;;-145.37;80.21
13486;BME280;6815;59.336;17.998;2023-04-15T04:21:12;52254.84;;;-145.37;79.71
13486;BME280;6815;59.336;17.998;2023-04-15T04:23:37;52222.91;;;-145.37;79.82
13486;BME280;6815;59.336;17.998;2023-04-15T04:26:03;52232.88;;;-145.37;80.82
13486;BME280;6815;59.336;17.998;2023-04-15T04:28:28;52216.91;;;-145.37;80.40
13486;BME280;6815;59.336;17.998;2023-04-15T04:30:54;52238.88;;;-145.37;80.04
13486;BME280;6815;59.336;17.998;2023-04-15T04:33:20;52226.91;;;-145.37;80.21
13486;BME280;6815;59.336;17.998;2023-04-15T04:35:45;52248.84;;;-145.37;79.95
13486;BME280;6815;59.336;17.998;2023-04-15T04:38:11;52228.88;;;-145.37;80.22
13486;BME280;6815;59.336;17.998;2023-04-15T04:40:36;52234.88;;;-145.37;79.69
13486;BME280;6815;59.336;17.998;2023-04-15T04:43:02;52240.88;;;-145.37;79.51
13486;BME280;6815;59.336;17.998;2023-04-15T04:45:27;52246.84;;;-145.37;79.94
13486;BME280;6815;59.336;17.998;2023-04-15T04:47:52;52224.91;;;-145.37;80.31
13486;BME280;6815;59.336;17.998;2023-04-15T04:50:18;52232.88;;;-145.37;79.34
13486;BME280;6815;59.336;17.998;2023-04-15T04:52:43;52216.91;;;-145.37;79.20
13486;BME280;6815;59.336;17.998;2023-04-15T04:55:09;52228.88;;;-145.37;79.09
13486;BME280;6815;59.336;17.998;2023-04-15T04:57:34;52230.88;;;-145.37;79.77
13486;BME280;6815;59.336;17.998;2023-04-15T05:00:01;52192.97;;;-145.37;79.46
13486;BME280;6815;59.336;17.998;2023-04-15T05:02:27;52248.84;;;-145.37;79.30
13486;BME280;6815;59.336;17.998;2023-04-15T05:04:53;52204.94;;;-145.37;79.63
13486;BME280;6815;59.336;17.998;2023-04-15T05:07:19;52196.94;;;-145.37;79.07
13486;BME280;6815;59.336;17.998;2023-04-15T05:09:45;52262.81;;;-145.37;78.71
13486;BME280;6815;59.336;17.998;2023-04-15T05:12:10;52216.91;;;-145.37;78.89
13486;BME280;6815;59.336;17.998;2023-04-15T05:14:39;52220.91;;;-145.37;79.25
13486;BME280;6815;59.336;17.998;2023-04-15T05:17:05;52312.72;;;-145.37;78.64
13486;BME280;6815;59.336;17.998;2023-04-15T05:19:31;52204.94;;;-145.37;78.46
13486;BME280;6815;59.336;17.998;2023-04-15T05:21:57;52236.88;;;-145.37;78.34
13486;BME280;6815;59.336;17.998;2023-04-15T05:24:22;52228.88;;;-145.37;78.56
13486;BME280;6815;59.336;17.998;2023-04-15T05:26:48;52228.88;;;-145.37;78.12
13486;BME280;6815;59.336;17.998;2023-04-15T05:29:13;52238.88;;;-145.37;78.04
13486;BME280;6815;59.336;17.998;2023-04-15T05:31:38;52260.84;;;-145.37;77.60
13486;BME280;6815;59.336;17.998;2023-04-15T05:34:04;52200.94;;;-145.37;77.31
13486;BME280;6815;59.336;17.998;2023-04-15T05:36:31;52238.88;;;-145.37;76.90
13486;BME280;6815;59.336;17.998;2023-04-15T05:38:57;52216.91;;;-145.37;76.74
13486;BME280;6815;59.336;17.998;2023-04-15T05:41:22;52252.84;;;-145.37;76.17
13486;BME280;6815;59.336;17.998;2023-04-15T05:43:47;52248.84;;;-145.37;75.79
13486;BME280;6815;59.336;17.998;2023-04-15T05:46:15;52230.88;;;-145.37;74.87
13486;BME280;6815;59.336;17.998;2023-04-15T05:48:40;52226.91;;;-145.37;74.26
13486;BME280;6815;59.336;17.998;2023-04-15T05:51:06;52200.94;;;-145.37;73.22
13486;BME280;6815;59.336;17.998;2023-04-15T05:53:31;52256.84;;;-145.37;72.60
13486;BME280;6815;59.336;17.998;2023-04-15T05:55:57;52228.88;;;-145.37;71.72
13486;BME280;6815;59.336;17.998;2023-04-15T05:58:22;52238.88;;;-145.37;71.41
13486;BME280;6815;59.336;17.998;2023-04-15T06:00:48;52218.91;;;-145.37;70.48
13486;BME280;6815;59.336;17.998;2023-04-15T06:03:13;52210.91;;;-145.37;70.19
13486;BME280;6815;59.336;17.998;2023-04-15T06:05:38;52236.88;;;-145.37;69.75
13486;BME280;6815;59.336;17.998;2023-04-15T06:08:05;52236.88;;;-145.37;69.11
13486;BME280;6815;59.336;17.998;2023-04-15T06:10:30;52232.88;;;-145.37;68.46
13486;BME280;6815;59.336;17.998;2023-04-15T06:13:00;52258.84;;;-145.37;68.39
13486;BME280;6815;59.336;17.998;2023-04-15T06:15:26;52250.84;;;-145.37;69.00
13486;BME280;6815;59.336;17.998;2023-04-15T06:17:51;52240.88;;;-145.37;68.06
13486;BME280;6815;59.336;17.998;2023-04-15T06:20:17;52254.84;;;-145.37;67.35
13486;BME280;6815;59.336;17.998;2023-04-15T06:22:42;52240.88;;;-145.37;67.13
13486;BME280;6815;59.336;17.998;2023-04-15T06:25:07;52226.91;;;-145.37;67.53
13486;BME280;6815;59.336;17.998;2023-04-15T06:27:33;52248.84;;;-145.37;67.12
13486;BME280;6815;59.336;17.998;2023-04-15T06:29:59;52246.84;;;-145.37;65.86
13486;BME280;6815;59.336;17.998;2023-04-15T06:32:24;52292.78;;;-145.37;66.17
13486;BME280;6815;59.336;17.998;2023-04-15T06:34:50;52224.91;;;-145.37;65.83
13486;BME280;6815;59.336;17.998;2023-04-15T06:37:15;52234.88;;;-145.37;65.98
13486;BME280;6815;59.336;17.998;2023-04-15T06:39:41;52240.88;;;-145.37;65.39
13486;BME280;6815;59.336;17.998;2023-04-15T06:42:07;52242.88;;;-145.37;65.52
13486;BME280;6815;59.336;17.998;2023-04-15T06:44:33;52216.91;;;-145.37;64.56
13486;BME280;6815;59.336;17.998;2023-04-15T06:46:59;52226.91;;;-145.37;65.03
13486;BME280;6815;59.336;17.998;2023-04-15T06:49:24;52268.81;;;-145.37;65.22
13486;BME280;6815;59.336;17.998;2023-04-15T06:51:50;52232.88;;;-145.37;64.50
13486;BME280;6815;59.336;17.998;2023-04-15T06:54:17;52254.84;;;-145.37;64.26
13486;BME280;6815;59.336;17.998;2023-04-15T06:56:46;52270.81;;;-145.37;64.07
13486;BME280;6815;59.336;17.998;2023-04-15T06:59:12;52226.91;;;-145.37;63.39
13486;BME280;6815;59.336;17.998;2023-04-15T07:01:39;52232.88;;;-145.37;63.92
13486;BME280;6815;59.336;17.998;2023-04-15T07:04:05;52288.78;;;-145.37;62.93
13486;BME280;6815;59.336;17.998;2023-04-15T07:06:34;52244.84;;;-145.37;62.84
13486;BME280;6815;59.336;17.998;2023-04-15T07:09:00;52246.84;;;-145.37;63.72
13486;BME280;6815;59.336;17.998;2023-04-15T07:11:26;52268.81;;;-145.37;63.71
13486;BME280;6815;59.336;17.998;2023-04-15T07:13:51;52266.81;;;-145.37;62.70
13486;BME280;6815;59.336;17.998;2023-04-15T07:16:17;52220.91;;;-145.37;63.06
13486;BME280;6815;59.336;17.998;2023-04-15T07:18:42;52224.91;;;-145.37;62.24
13486;BME280;6815;59.336;17.998;2023-04-15T07:21:08;52210.91;;;-145.37;61.83
13486;BME280;6815;59.336;17.998;2023-04-15T07:23:33;52230.88;;;-145.37;62.05
13486;BME280;6815;59.336;17.998;2023-04-15T07:25:59;52232.88;;;-145.37;61.70
13486;BME280;6815;59.336;17.998;2023-04-15T07:28:25;52230.88;;;-145.37;61.92
13486;BME280;6815;59.336;17.998;2023-04-15T07:30:51;52226.91;;;-145.37;61.57
13486;BME280;6815;59.336;17.998;2023-04-15T07:33:17;52260.84;;;-145.37;61.69
13486;BME280;6815;59.336;17.998;2023-04-15T07:35:42;52246.84;;;-145.37;61.30
13486;BME280;6815;59.336;17.998;2023-04-15T07:38:07;52198.94;;;-145.37;61.87
13486;BME280;6815;59.336;17.998;2023-04-15T07:40:33;52252.84;;;-145.37;61.89
13486;BME280;6815;59.336;17.998;2023-04-15T07:42:59;52270.81;;;-145.37;61.53
13486;BME280;6815;59.336;17.998;2023-04-15T07:45:24;52232.88;;;-145.37;60.51
13486;BME280;6815;59.336;17.998;2023-04-15T07:47:50;52286.78;;;-145.37;60.51
13486;BME280;6815;59.336;17.998;2023-04-15T07:50:15;52248.84;;;-145.37;60.40
13486;BME280;6815;59.336;17.998;2023-04-15T07:52:42;52252.84;;;-145.37;60.87
13486;BME280;6815;59.336;17.998;2023-04-15T07:55:08;52244.84;;;-145.37;60.37
13486;BME280;6815;59.336;17.998;2023-04-15T07:57:34;52262.81;;;-145.37;60.74
13486;BME280;6815;59.336;17.998;2023-04-15T08:00:00;52246.84;;;-145.37;60.39
13486;BME280;6815;59.336;17.998;2023-04-15T08:02:27;52284.78;;;-145.37;59.66
13486;BME280;6815;59.336;17.998;2023-04-15T08:04:54;52246.84;;;-145.37;59.50
13486;BME280;6815;59.336;17.998;2023-04-15T08:07:19;52232.88;;;-145.37;59.92
13486;BME280;6815;59.336;17.998;2023-04-15T08:09:45;52226.91;;;-145.37;59.81
13486;BME280;6815;59.336;17.998;2023-04-15T08:12:11;52258.84;;;-145.37;59.44
13486;BME280;6815;59.336;17.998;2023-04-15T08:14:38;52264.81;;;-145.37;59.48
13486;BME280;6815;59.336;17.998;2023-04-15T08:17:03;52244.84;;;-145.37;59.42
13486;BME280;6815;59.336;17.998;2023-04-15T08:19:30;52226.91;;;-145.37;59.06
13486;BME280;6815;59.336;17.998;2023-04-15T08:21:56;52242.88;;;-145.37;59.24
13486;BME280;6815;59.336;17.998;2023-04-15T08:24:22;52230.88;;;-145.37;59.36
13486;BME280;6815;59.336;17.998;2023-04-15T08:26:48;52242.88;;;-145.37;59.40
13486;BME280;6815;59.336;17.998;2023-04-15T08:29:13;52274.81;;;-145.37;59.26
13486;BME280;6815;59.336;17.998;2023-04-15T08:31:39;52242.88;;;-145.37;59.18
13486;BME280;6815;59.336;17.998;2023-04-15T08:34:05;52246.84;;;-145.37;58.83
13486;BME280;6815;59.336;17.998;2023-04-15T08:36:30;52244.84;;;-145.37;58.98
13486;BME280;6815;59.336;17.998;2023-04-15T08:38:56;52246.84;;;-145.37;58.77
13486;BME280;6815;59.336;17.998;2023-04-15T08:41:24;52262.81;;;-145.37;59.04
13486;BME280;6815;59.336;17.998;2023-04-15T08:43:57;52248.84;;;-145.37;58.96
13486;BME280;6815;59.336;17.998;2023-04-15T08:46:23;52250.84;;;-145.37;59.06
13486;BME280;6815;59.336;17.998;2023-04-15T08:48:49;52246.84;;;-145.37;58.86
13486;BME280;6815;59.336;17.998;2023-04-15T08:51:18;52232.88;;;-145.37;59.03
13486;BME280;6815;59.336;17.998;2023-04-15T08:53:44;52250.84;;;-145.37;58.20
13486;BME280;6815;59.336;17.998;2023-04-15T08:56:13;52284.78;;;-145.37;57.71
13486;BME280;6815;59.336;17.998;2023-04-15T08:58:42;52250.84;;;-145.37;57.47
13486;BME280;6815;59.336;17.998;2023-04-15T09:01:09;52284.78;;;-145.37;57.22
13486;BME280;6815;59.336;17.998;2023-04-15T09:03:37;52216.91;;;-145.37;56.81
13486;BME280;6815;59.336;17.998;2023-04-15T09:06:03;52252.84;;;-145.37;57.29
13486;BME280;6815;59.336;17.998;2023-04-15T09:08:30;52286.78;;;-145.37;57.49
13486;BME280;6815;59.336;17.998;2023-04-15T09:10:55;52252.84;;;-145.37;57.20
13486;BME280;6815;59.336;17.998;2023-04-15T09:13:21;52218.91;;;-145.37;57.37
13486;BME280;6815;59.336;17.998;2023-04-15T09:15:47;52216.91;;;-145.37;57.39
13486;BME280;6815;59.336;17.998;2023-04-15T09:18:19;52214.91;;;-145.37;57.86
13486;BME280;6815;59.336;17.998;2023-04-15T09:20:52;52216.91;;;-145.37;57.04
13486;BME280;6815;59.336;17.998;2023-04-15T09:23:18;52202.94;;;-145.37;56.79
13486;BME280;6815;59.336;17.998;2023-04-15T09:25:45;52264.81;;;-145.37;56.34
13486;BME280;6815;59.336;17.998;2023-04-15T09:28:13;52218.91;;;-145.37;56.37
13486;BME280;6815;59.336;17.998;2023-04-15T09:30:41;52208.94;;;-145.37;56.29
13486;BME280;6815;59.336;17.998;2023-04-15T09:33:13;52214.91;;;-145.37;56.34
13486;BME280;6815;59.336;17.998;2023-04-15T09:35:39;52230.88;;;-145.37;56.20
13486;BME280;6815;59.336;17.998;2023-04-15T09:38:09;52196.94;;;-145.37;54.67
13486;BME280;6815;59.336;17.998;2023-04-15T09:43:01;52228.88;;;-145.37;54.64
13486;BME280;6815;59.336;17.998;2023-04-15T09:45:28;52248.84;;;-145.37;54.99
13486;BME280;6815;59.336;17.998;2023-04-15T09:47:56;52246.84;;;-145.37;54.44
13486;BME280;6815;59.336;17.998;2023-04-15T09:50:27;52254.84;;;-145.37;54.59
13486;BME280;6815;59.336;17.998;2023-04-15T09:52:54;52238.88;;;-145.37;53.80
13486;BME280;6815;59.336;17.998;2023-04-15T09:55:20;52244.84;;;-145.37;53.81
13486;BME280;6815;59.336;17.998;2023-04-15T09:57:45;52256.84;;;-145.37;53.68
13486;BME280;6815;59.336;17.998;2023-04-15T10:00:13;52260.84;;;-145.37;53.88
13486;BME280;6815;59.336;17.998;2023-04-15T10:02:40;52260.84;;;-145.37;54.30
13486;BME280;6815;59.336;17.998;2023-04-15T10:05:14;52300.75;;;-145.37;54.42
13486;BME280;6815;59.336;17.998;2023-04-15T10:07:40;52252.84;;;-145.37;53.73
13486;BME280;6815;59.336;17.998;2023-04-15T10:10:07;52236.88;;;-145.37;54.09
13486;BME280;6815;59.336;17.998;2023-04-15T10:12:35;52204.94;;;-145.37;54.22
13486;BME280;6815;59.336;17.998;2023-04-15T10:15:05;52226.91;;;-145.37;54.25
13486;BME280;6815;59.336;17.998;2023-04-15T10:17:32;52256.84;;;-145.37;54.85
13486;BME280;6815;59.336;17.998;2023-04-15T10:20:03;52270.81;;;-145.37;55.22
13486;BME280;6815;59.336;17.998;2023-04-15T10:22:30;52268.81;;;-145.37;53.76
13486;BME280;6815;59.336;17.998;2023-04-15T10:24:55;52200.94;;;-145.37;53.45
13486;BME280;6815;59.336;17.998;2023-04-15T10:27:23;52234.88;;;-145.37;53.49
13486;BME280;6815;59.336;17.998;2023-04-15T10:29:50;52196.94;;;-145.37;52.62
13486;BME280;6815;59.336;17.998;2023-04-15T10:32:18;52260.84;;;-145.37;53.45
13486;BME280;6815;59.336;17.998;2023-04-15T10:34:45;52226.91;;;-145.37;53.32
13486;BME280;6815;59.336;17.998;2023-04-15T10:37:11;52232.88;;;-145.37;53.40
13486;BME280;6815;59.336;17.998;2023-04-15T10:39:37;52218.91;;;-145.37;53.38
13486;BME280;6815;59.336;17.998;2023-04-15T10:44:32;52244.84;;;-145.37;52.58
13486;BME280;6815;59.336;17.998;2023-04-15T10:46:59;52230.88;;;-145.37;52.07
13486;BME280;6815;59.336;17.998;2023-04-15T10:49:25;52234.88;;;-145.37;51.64
13486;BME280;6815;59.336;17.998;2023-04-15T10:51:52;52252.84;;;-145.37;51.49
13486;BME280;6815;59.336;17.998;2023-04-15T10:57:07;52248.84;;;-145.37;51.57
13486;BME280;6815;59.336;17.998;2023-04-15T11:08:07;52244.84;;;-145.37;50.05
13486;BME280;6815;59.336;17.998;2023-04-15T11:13:15;52276.81;;;-145.37;50.26
13486;BME280;6815;59.336;17.998;2023-04-15T11:15:43;52242.88;;;-145.37;49.54
13486;BME280;6815;59.336;17.998;2023-04-15T11:20:43;52264.81;;;-145.37;50.08
13486;BME280;6815;59.336;17.998;2023-04-15T11:23:13;52260.84;;;-145.37;50.22
13486;BME280;6815;59.336;17.998;2023-04-15T11:25:39;52232.88;;;-145.37;50.13
13486;BME280;6815;59.336;17.998;2023-04-15T11:28:05;52198.94;;;-145.37;49.47
13486;BME280;6815;59.336;17.998;2023-04-15T11:30:36;52272.81;;;-145.37;50.11
13486;BME280;6815;59.336;17.998;2023-04-15T11:33:04;52274.81;;;-145.37;49.63
13486;BME280;6815;59.336;17.998;2023-04-15T11:35:30;52252.84;;;-145.37;49.31
13486;BME280;6815;59.336;17.998;2023-04-15T11:37:56;52276.81;;;-145.37;49.81
13486;BME280;6815;59.336;17.998;2023-04-15T11:40:27;52268.81;;;-145.37;49.89
13486;BME280;6815;59.336;17.998;2023-04-15T11:45:58;52212.91;;;-145.37;49.67
13486;BME280;6815;59.336;17.998;2023-04-15T11:48:26;52254.84;;;-145.37;49.81
13486;BME280;6815;59.336;17.998;2023-04-15T11:51:03;52230.88;;;-145.37;50.32
13486;BME280;6815;59.336;17.998;2023-04-15T11:53:46;52244.84;;;-145.37;50.10
13486;BME280;6815;59.336;17.998;2023-04-15T11:56:22;52264.81;;;-145.37;49.75
13486;BME280;6815;59.336;17.998;2023-04-15T11:58:54;52208.94;;;-145.37;49.78
13486;BME280;6815;59.336;17.998;2023-04-15T12:01:33;52240.88;;;-145.37;49.44
13486;BME280;6815;59.336;17.998;2023-04-15T12:03:59;52252.84;;;-145.37;49.11
13486;BME280;6815;59.336;17.998;2023-04-15T12:06:33;52262.81;;;-145.37;48.60
13486;BME280;6815;59.336;17.998;2023-04-15T12:09:09;52228.88;;;-145.37;47.26
13486;BME280;6815;59.336;17.998;2023-04-15T12:11:37;52226.91;;;-145.37;47.38
13486;BME280;6815;59.336;17.998;2023-04-15T12:14:04;52238.88;;;-145.37;47.02
13486;BME280;6815;59.336;17.998;2023-04-15T12:16:31;52244.84;;;-145.37;46.94
13486;BME280;6815;59.336;17.998;2023-04-15T12:19:01;52252.84;;;-145.37;46.72
13486;BME280;6815;59.336;17.998;2023-04-15T12:21:33;52258.84;;;-145.37;46.75
13486;BME280;6815;59.336;17.998;2023-04-15T12:24:02;52248.84;;;-145.37;47.00
13486;BME280;6815;59.336;17.998;2023-04-15T12:26:43;52216.91;;;-145.37;47.16
13486;BME280;6815;59.336;17.998;2023-04-15T12:29:11;52258.84;;;-145.37;46.68
13486;BME280;6815;59.336;17.998;2023-04-15T12:31:46;52226.91;;;-145.37;46.72
13486;BME280;6815;59.336;17.998;2023-04-15T12:34:12;52268.81;;;-145.37;47.08
13486;BME280;6815;59.336;17.998;2023-04-15T12:36:39;52242.88;;;-145.37;46.96
13486;BME280;6815;59.336;17.998;2023-04-15T12:39:05;52224.91;;;-145.37;46.58
13486;BME280;6815;59.336;17.998;2023-04-15T12:41:31;52220.91;;;-145.37;46.31
13486;BME280;6815;59.336;17.998;2023-04-15T12:43:57;52202.94;;;-145.37;46.41
13486;BME280;6815;59.336;17.998;2023-04-15T12:46:23;52224.91;;;-145.37;46.46
13486;BME280;6815;59.336;17.998;2023-04-15T12:48:49;52202.94;;;-145.37;46.52
13486;BME280;6815;59.336;17.998;2023-04-15T12:51:15;52226.91;;;-145.37;46.75
13486;BME280;6815;59.336;17.998;2023-04-15T12:53:40;52208.94;;;-145.37;46.65
13486;BME280;6815;59.336;17.998;2023-04-15T12:56:07;52232.88;;;-145.37;46.90
13486;BME280;6815;59.336;17.998;2023-04-15T12:58:33;52212.91;;;-145.37;46.45
13486;BME280;6815;59.336;17.998;2023-04-15T13:01:00;52240.88;;;-145.37;45.39